createdAt,value
2022-10-18T00:00:27.696Z,97576.59
2022-10-18T00:02:54.071Z,97574.94
2022-10-18T00:05:20.454Z,97586.50
2022-10-18T00:07:46.827Z,97581.47
2022-10-18T00:10:13.185Z,97589.31
2022-10-18T00:12:39.585Z,97592.94
2022-10-18T00:15:05.977Z,97588.94
2022-10-18T00:17:32.561Z,97589.94
2022-10-18T00:19:59.131Z,97593.84
2022-10-18T00:22:25.512Z,97600.41
2022-10-18T00:24:51.869Z,97589.94
2022-10-18T00:27:18.219Z,97589.94
2022-10-18T00:29:44.580Z,97594.06
2022-10-18T00:32:10.936Z,97590.28
2022-10-18T00:34:37.305Z,97590.16
2022-10-18T00:37:03.680Z,97589.16
2022-10-18T00:39:30.048Z,97584.16
2022-10-18T00:41:56.436Z,97584.84
2022-10-18T00:44:22.803Z,97578.38
2022-10-18T00:46:49.171Z,97582.63
2022-10-18T00:49:15.546Z,97577.03
2022-10-18T00:51:41.895Z,97579.81
2022-10-18T00:54:08.265Z,97581.84
2022-10-18T00:56:34.624Z,97579.25
2022-10-18T00:59:01.011Z,97580.72
2022-10-18T01:01:28.488Z,97582.47
2022-10-18T01:03:55.083Z,97585.38
2022-10-18T01:06:21.436Z,97591.50
2022-10-18T01:08:47.809Z,97588.81
2022-10-18T01:11:14.174Z,97589.94
2022-10-18T01:13:40.534Z,97588.84
2022-10-18T01:16:06.903Z,97592.28
2022-10-18T01:18:33.508Z,97590.06
2022-10-18T01:20:59.923Z,97587.41
2022-10-18T01:23:26.280Z,97583.16
2022-10-18T01:25:52.647Z,97584.72
2022-10-18T01:28:18.996Z,97582.16
2022-10-18T01:30:45.378Z,97583.50
2022-10-18T01:33:11.749Z,97595.19
2022-10-18T01:35:38.124Z,97587.84
2022-10-18T01:38:04.480Z,97587.38
2022-10-18T01:40:30.842Z,97585.28
2022-10-18T01:42:57.265Z,97582.03
2022-10-18T01:45:23.658Z,97588.75
2022-10-18T01:47:50.026Z,97582.03
2022-10-18T01:50:16.388Z,97583.81
2022-10-18T01:52:42.750Z,97581.47
2022-10-18T01:55:09.116Z,97582.25
2022-10-18T01:57:35.472Z,97580.50
2022-10-18T02:00:01.854Z,97584.94
2022-10-18T02:02:28.439Z,97582.72
2022-10-18T02:04:54.868Z,97589.94
2022-10-18T02:07:21.228Z,97581.94
2022-10-18T02:09:47.586Z,97577.16
2022-10-18T02:12:13.950Z,97576.91
2022-10-18T02:14:40.332Z,97568.59
2022-10-18T02:17:06.788Z,97566.91
2022-10-18T02:19:33.146Z,97564.56
2022-10-18T02:21:59.516Z,97560.47
2022-10-18T02:24:25.880Z,97565.47
2022-10-18T02:26:52.232Z,97569.13
2022-10-18T02:29:18.595Z,97576.50
2022-10-18T02:31:44.966Z,97581.16
2022-10-18T02:34:11.341Z,97578.38
2022-10-18T02:36:37.704Z,97574.38
2022-10-18T02:39:04.071Z,97576.13
2022-10-18T02:41:30.438Z,97572.72
2022-10-18T02:43:56.809Z,97570.69
2022-10-18T02:46:23.209Z,97576.72
2022-10-18T02:48:49.611Z,97573.81
2022-10-18T02:51:15.972Z,97573.94
2022-10-18T02:53:42.340Z,97569.34
2022-10-18T02:56:08.709Z,97568.25
2022-10-18T02:58:35.069Z,97566.47
2022-10-18T03:01:01.447Z,97571.81
2022-10-18T03:03:27.818Z,97576.72
2022-10-18T03:05:54.241Z,97581.34
2022-10-18T03:08:20.606Z,97584.50
2022-10-18T03:10:46.984Z,97584.28
2022-10-18T03:13:13.354Z,97597.41
2022-10-18T03:15:39.726Z,97602.41
2022-10-18T03:18:06.106Z,97604.84
2022-10-18T03:20:32.485Z,97608.94
2022-10-18T03:22:58.840Z,97603.19
2022-10-18T03:25:25.203Z,97618.41
2022-10-18T03:27:51.562Z,97616.88
2022-10-18T03:30:17.929Z,97622.13
2022-10-18T03:32:44.302Z,97614.28
2022-10-18T03:35:10.670Z,97622.22
2022-10-18T03:37:37.046Z,97615.22
2022-10-18T03:40:03.407Z,97610.75
2022-10-18T03:42:30.121Z,97608.75
2022-10-18T03:44:56.855Z,97608.84
2022-10-18T03:47:23.221Z,97611.44
2022-10-18T03:49:52.033Z,97613.16
2022-10-18T03:52:21.043Z,97622.75
2022-10-18T03:54:47.417Z,97623.44
2022-10-18T03:57:13.773Z,97626.78
2022-10-18T03:59:40.137Z,97641.56
2022-10-18T04:02:06.634Z,97643.66
2022-10-18T04:04:32.997Z,97643.91
2022-10-18T04:06:59.362Z,97651.50
2022-10-18T04:09:25.716Z,97650.03
2022-10-18T04:11:52.072Z,97644.31
2022-10-18T04:14:18.435Z,97645.16
2022-10-18T04:16:44.802Z,97644.59
2022-10-18T04:19:11.152Z,97647.81
2022-10-18T04:21:37.533Z,97648.19
2022-10-18T04:24:03.896Z,97640.50
2022-10-18T04:26:30.335Z,97647.34
2022-10-18T04:28:56.718Z,97652.88
2022-10-18T04:31:23.129Z,97654.69
2022-10-18T04:33:49.496Z,97650.97
2022-10-18T04:36:15.853Z,97649.53
2022-10-18T04:38:42.227Z,97640.31
2022-10-18T04:41:08.585Z,97641.06
2022-10-18T04:43:35.010Z,97650.34
2022-10-18T04:46:01.399Z,97647.44
2022-10-18T04:48:27.777Z,97651.53
2022-10-18T04:50:54.147Z,97654.13
2022-10-18T04:53:20.523Z,97649.53
2022-10-18T04:55:46.880Z,97646.13
2022-10-18T04:58:13.342Z,97644.66
2022-10-18T05:00:40.143Z,97645.75
2022-10-18T05:03:06.651Z,97646.50
2022-10-18T05:05:50.039Z,97652.09
2022-10-18T05:08:19.366Z,97659.56
2022-10-18T05:10:45.741Z,97669.03
2022-10-18T05:13:12.112Z,97668.25
2022-10-18T05:15:38.469Z,97659.69
2022-10-18T05:18:04.828Z,97654.16
2022-10-18T05:20:31.197Z,97657.94
2022-10-18T05:22:57.570Z,97662.34
2022-10-18T05:25:23.924Z,97653.25
2022-10-18T05:27:50.305Z,97651.34
2022-10-18T05:30:16.665Z,97656.25
2022-10-18T05:32:43.020Z,97660.44
2022-10-18T05:35:09.390Z,97658.22
2022-10-18T05:37:35.744Z,97663.03
2022-10-18T05:40:02.100Z,97654.69
2022-10-18T05:42:28.491Z,97660.34
2022-10-18T05:44:54.891Z,97663.81
2022-10-18T05:47:21.317Z,97659.78
2022-10-18T05:49:47.738Z,97655.22
2022-10-18T05:52:14.109Z,97649.38
2022-10-18T05:54:40.464Z,97653.41
2022-10-18T05:57:06.838Z,97659.44
2022-10-18T05:59:33.204Z,97660.06
2022-10-18T06:01:59.572Z,97662.78
2022-10-18T06:04:25.942Z,97655.88
2022-10-18T06:06:52.306Z,97657.84
2022-10-18T06:09:18.670Z,97653.56
2022-10-18T06:11:45.049Z,97660.44
2022-10-18T06:14:11.409Z,97664.28
2022-10-18T06:19:24.052Z,97669.94
2022-10-18T06:21:50.416Z,97674.59
2022-10-18T06:24:16.771Z,97674.19
2022-10-18T06:26:43.164Z,97673.72
2022-10-18T06:29:09.608Z,97677.16
2022-10-18T06:31:36.026Z,97679.25
2022-10-18T06:34:02.382Z,97676.38
2022-10-18T06:36:28.804Z,97673.81
2022-10-18T06:38:55.155Z,97674.38
2022-10-18T06:41:21.518Z,97671.25
2022-10-18T06:43:47.884Z,97662.78
2022-10-18T06:46:14.251Z,97666.16
2022-10-18T06:48:40.638Z,97674.81
2022-10-18T06:51:06.991Z,97677.16
2022-10-18T06:53:33.362Z,97682.34
2022-10-18T06:55:59.731Z,97690.25
2022-10-18T06:58:26.093Z,97688.50
2022-10-18T07:00:52.458Z,97688.59
2022-10-18T07:03:18.828Z,97691.00
2022-10-18T07:05:45.199Z,97690.00
2022-10-18T07:08:11.579Z,97698.53
2022-10-18T07:10:37.942Z,97696.09
2022-10-18T07:13:27.285Z,97691.56
2022-10-18T07:15:50.651Z,97688.53
2022-10-18T07:18:17.025Z,97685.97
2022-10-18T07:20:43.380Z,97694.03
2022-10-18T07:23:09.763Z,97691.72
2022-10-18T07:25:36.130Z,97692.72
2022-10-18T07:28:02.492Z,97703.41
2022-10-18T07:30:28.862Z,97697.81
2022-10-18T07:32:55.230Z,97697.94
2022-10-18T07:35:21.588Z,97699.31
2022-10-18T07:37:47.975Z,97695.53
2022-10-18T07:40:14.339Z,97695.66
2022-10-18T07:42:40.711Z,97693.81
2022-10-18T07:45:07.071Z,97691.50
2022-10-18T07:47:35.227Z,97691.50
2022-10-18T07:50:01.847Z,97689.19
2022-10-18T07:52:28.213Z,97689.94
2022-10-18T07:54:54.586Z,97695.13
2022-10-18T07:57:20.962Z,97693.59
2022-10-18T07:59:47.337Z,97692.88
2022-10-18T08:02:13.713Z,97696.06
2022-10-18T08:04:40.079Z,97699.16
2022-10-18T08:07:06.455Z,97705.50
2022-10-18T08:09:32.830Z,97714.28
2022-10-18T08:11:59.189Z,97715.91
2022-10-18T08:14:25.552Z,97717.38
2022-10-18T08:16:51.912Z,97707.84
2022-10-18T08:19:18.292Z,97704.19
2022-10-18T08:21:44.659Z,97705.38
2022-10-18T08:24:11.020Z,97694.72
2022-10-18T08:26:37.395Z,97682.13
2022-10-18T08:29:21.094Z,97685.91
2022-10-18T08:31:48.744Z,97688.47
2022-10-18T08:34:19.486Z,97696.28
2022-10-18T08:36:46.278Z,97695.94
2022-10-18T08:39:12.657Z,97705.25
2022-10-18T08:41:39.038Z,97701.63
2022-10-18T08:44:07.265Z,97689.72
2022-10-18T08:46:34.056Z,97702.41
2022-10-18T08:49:00.441Z,97691.56
2022-10-18T08:51:26.803Z,97684.06
2022-10-18T08:53:53.174Z,97678.94
2022-10-18T08:56:19.646Z,97681.78
2022-10-18T08:58:46.021Z,97681.97
2022-10-18T09:01:12.391Z,97674.34
2022-10-18T09:03:38.779Z,97663.78
2022-10-18T09:06:05.194Z,97668.06
2022-10-18T09:08:31.595Z,97673.31
2022-10-18T09:13:44.285Z,97670.09
2022-10-18T09:16:10.675Z,97678.75
2022-10-18T09:18:37.037Z,97676.66
2022-10-18T09:21:03.434Z,97680.91
2022-10-18T09:23:29.850Z,97674.34
2022-10-18T09:25:56.217Z,97669.66
2022-10-18T09:28:22.637Z,97674.97
2022-10-18T09:30:49.011Z,97669.31
2022-10-18T09:33:15.391Z,97663.53
2022-10-18T09:35:41.780Z,97663.66
2022-10-18T09:38:08.156Z,97665.75
2022-10-18T09:40:34.541Z,97665.41
2022-10-18T09:43:00.930Z,97665.56
2022-10-18T09:45:27.296Z,97657.84
2022-10-18T09:47:53.664Z,97658.66
2022-10-18T09:50:20.028Z,97655.66
2022-10-18T09:52:46.402Z,97660.13
2022-10-18T09:55:12.779Z,97650.44
2022-10-18T09:57:39.137Z,97648.06
2022-10-18T10:00:05.552Z,97649.84
2022-10-18T10:02:31.934Z,97645.88
2022-10-18T10:04:58.369Z,97646.78
2022-10-18T10:07:24.764Z,97646.78
2022-10-18T10:09:51.139Z,97646.31
2022-10-18T10:12:17.516Z,97645.19
2022-10-18T10:14:43.902Z,97649.66
2022-10-18T10:17:10.288Z,97642.75
2022-10-18T10:19:36.656Z,97649.66
2022-10-18T10:22:03.033Z,97648.06
2022-10-18T10:24:31.136Z,97648.84
2022-10-18T10:26:57.776Z,97651.53
2022-10-18T10:29:43.755Z,97655.44
2022-10-18T10:32:10.490Z,97647.28
2022-10-18T10:34:39.816Z,97656.44
2022-10-18T10:37:08.776Z,97651.84
2022-10-18T10:39:35.151Z,97651.00
2022-10-18T10:42:01.537Z,97641.41
2022-10-18T10:44:27.931Z,97639.88
2022-10-18T10:46:54.299Z,97632.59
2022-10-18T10:49:39.140Z,97630.53
2022-10-18T10:52:08.710Z,97635.66
2022-10-18T10:54:51.965Z,97633.13
2022-10-18T10:57:18.954Z,97626.88
2022-10-18T10:59:45.323Z,97627.06
2022-10-18T11:02:11.720Z,97631.31
2022-10-18T11:04:38.084Z,97620.34
2022-10-18T11:07:04.470Z,97618.41
2022-10-18T11:09:30.857Z,97618.41
2022-10-18T11:11:57.242Z,97608.94
2022-10-18T11:14:26.141Z,97612.19
2022-10-18T11:16:53.455Z,97603.41
2022-10-18T11:19:19.836Z,97606.06
2022-10-18T11:21:46.213Z,97601.63
2022-10-18T11:24:12.594Z,97607.63
2022-10-18T11:26:41.081Z,97598.84
2022-10-18T11:29:09.212Z,97596.50
2022-10-18T11:31:35.604Z,97597.13
2022-10-18T11:34:10.410Z,97586.28
2022-10-18T11:36:36.984Z,97589.59
2022-10-18T11:39:03.361Z,97585.13
2022-10-18T11:41:29.736Z,97588.06
2022-10-18T11:44:03.929Z,97588.38
2022-10-18T11:46:30.465Z,97583.81
2022-10-18T11:48:56.832Z,97581.06
2022-10-18T11:51:33.968Z,97573.28
2022-10-18T11:54:05.189Z,97574.16
2022-10-18T11:56:31.577Z,97571.59
2022-10-18T11:58:57.957Z,97566.13
2022-10-18T12:01:27.676Z,97564.47
2022-10-18T12:03:55.059Z,97558.47
2022-10-18T12:06:21.454Z,97554.44
2022-10-18T12:08:47.840Z,97545.97
2022-10-18T12:11:14.219Z,97548.44
2022-10-18T12:13:40.626Z,97541.22
2022-10-18T12:16:07.002Z,97534.88
2022-10-18T12:18:33.383Z,97536.84
2022-10-18T12:20:59.760Z,97523.50
2022-10-18T12:23:26.224Z,97529.75
2022-10-18T12:25:52.590Z,97529.53
2022-10-18T12:28:18.962Z,97523.63
2022-10-18T12:30:45.338Z,97524.06
2022-10-18T12:33:27.389Z,97515.94
2022-10-18T12:35:54.875Z,97516.41
2022-10-18T12:38:21.246Z,97518.16
2022-10-18T12:40:47.611Z,97507.47
2022-10-18T12:43:13.983Z,97502.03
2022-10-18T12:45:40.363Z,97497.34
2022-10-18T12:48:06.778Z,97494.91
2022-10-18T12:50:33.176Z,97482.78
2022-10-18T12:52:59.536Z,97483.56
2022-10-18T12:55:25.926Z,97482.41
2022-10-18T12:57:52.289Z,97482.34
2022-10-18T13:00:18.660Z,97484.22
2022-10-18T13:02:45.049Z,97480.19
2022-10-18T13:05:21.164Z,97478.63
2022-10-18T13:07:57.801Z,97474.56
2022-10-18T13:10:24.179Z,97480.44
2022-10-18T13:12:50.566Z,97474.94
2022-10-18T13:15:25.699Z,97470.53
2022-10-18T13:17:53.408Z,97473.22
2022-10-18T13:20:27.664Z,97476.22
2022-10-18T13:22:54.303Z,97475.97
2022-10-18T13:25:20.671Z,97470.88
2022-10-18T13:27:47.357Z,97482.56
2022-10-18T13:30:13.963Z,97482.00
2022-10-18T13:32:40.352Z,97483.22
2022-10-18T13:35:06.749Z,97474.53
2022-10-18T13:37:33.145Z,97471.09
2022-10-18T13:39:59.518Z,97470.06
2022-10-18T13:42:25.889Z,97467.53
2022-10-18T13:44:52.255Z,97467.41
2022-10-18T13:47:18.635Z,97469.63
2022-10-18T13:49:45.001Z,97465.84
2022-10-18T13:52:11.376Z,97465.19
2022-10-18T13:54:37.739Z,97476.66
2022-10-18T13:57:04.103Z,97472.75
2022-10-18T13:59:30.499Z,97473.97
2022-10-18T14:01:56.938Z,97471.63
2022-10-18T14:04:23.426Z,97462.06
2022-10-18T14:06:49.805Z,97463.31
2022-10-18T14:09:25.542Z,97466.41
2022-10-18T14:11:59.097Z,97463.31
2022-10-18T14:14:25.467Z,97462.19
2022-10-18T14:16:51.853Z,97458.16
2022-10-18T14:19:18.232Z,97453.72
2022-10-18T14:21:44.605Z,97456.25
2022-10-18T14:24:10.974Z,97456.47
2022-10-18T14:26:37.364Z,97464.28
2022-10-18T14:29:03.996Z,97459.47
2022-10-18T14:31:30.479Z,97448.00
2022-10-18T14:33:58.368Z,97451.59
2022-10-18T14:36:25.187Z,97444.94
2022-10-18T14:38:51.565Z,97446.72
2022-10-18T14:41:17.935Z,97445.56
2022-10-18T14:43:44.328Z,97446.88
2022-10-18T14:46:10.709Z,97446.34
2022-10-18T14:48:37.083Z,97455.28
2022-10-18T14:51:03.459Z,97445.78
2022-10-18T14:53:29.834Z,97449.13
2022-10-18T14:55:56.210Z,97448.00
2022-10-18T14:58:22.592Z,97444.66
2022-10-18T15:00:48.948Z,97450.00
2022-10-18T15:03:15.316Z,97444.34
2022-10-18T15:05:41.691Z,97435.53
2022-10-18T15:08:08.080Z,97441.22
2022-10-18T15:10:34.448Z,97442.09
2022-10-18T15:13:16.543Z,97436.66
2022-10-18T15:15:43.304Z,97435.53
2022-10-18T15:18:09.673Z,97435.88
2022-10-18T15:20:36.047Z,97439.66
2022-10-18T15:23:02.425Z,97428.72
2022-10-18T15:25:31.824Z,97428.72
2022-10-18T15:27:58.524Z,97424.84
2022-10-18T15:30:24.895Z,97427.66
2022-10-18T15:32:51.274Z,97425.66
2022-10-18T15:35:20.038Z,97421.72
2022-10-18T15:37:49.916Z,97419.63
2022-10-18T15:40:16.461Z,97426.53
2022-10-18T15:42:42.882Z,97424.41
2022-10-18T15:45:09.255Z,97423.31
2022-10-18T15:47:35.729Z,97418.28
2022-10-18T15:50:02.159Z,97423.38
2022-10-18T15:52:28.526Z,97420.69
2022-10-18T15:54:54.918Z,97411.16
2022-10-18T15:57:21.337Z,97408.56
2022-10-18T15:59:47.706Z,97403.66
2022-10-18T16:02:14.072Z,97403.03
2022-10-18T16:04:40.449Z,97398.47
2022-10-18T16:07:06.822Z,97398.53
2022-10-18T16:09:33.196Z,97394.34
2022-10-18T16:11:59.578Z,97396.31
2022-10-18T16:14:25.975Z,97404.91
2022-10-18T16:16:52.347Z,97393.88
2022-10-18T16:19:18.715Z,97399.69
2022-10-18T16:21:45.084Z,97393.19
2022-10-18T16:24:11.458Z,97395.44
2022-10-18T16:26:38.003Z,97397.66
2022-10-18T16:29:04.503Z,97393.97
2022-10-18T16:31:31.030Z,97400.78
2022-10-18T16:33:57.429Z,97407.78
2022-10-18T16:36:23.807Z,97408.47
2022-10-18T16:38:50.173Z,97402.44
2022-10-18T16:41:16.539Z,97406.41
2022-10-18T16:43:42.912Z,97406.41
2022-10-18T16:46:09.289Z,97409.41
2022-10-18T16:48:35.756Z,97420.31
2022-10-18T16:51:02.116Z,97417.19
2022-10-18T16:53:28.479Z,97417.88
2022-10-18T16:55:54.862Z,97417.66
2022-10-18T16:58:21.221Z,97427.09
2022-10-18T17:00:47.587Z,97431.34
2022-10-18T17:03:13.959Z,97426.31
2022-10-18T17:05:40.323Z,97422.44
2022-10-18T17:08:06.683Z,97426.78
2022-10-18T17:10:33.064Z,97431.88
2022-10-18T17:12:59.440Z,97437.38
2022-10-18T17:15:25.808Z,97433.22
2022-10-18T17:17:52.165Z,97443.34
2022-10-18T17:20:18.545Z,97443.56
2022-10-18T17:22:44.921Z,97436.06
2022-10-18T17:25:11.323Z,97442.97
2022-10-18T17:27:37.702Z,97446.00
2022-10-18T17:30:04.081Z,97447.09
2022-10-18T17:32:30.449Z,97445.66
2022-10-18T17:34:56.821Z,97452.97
2022-10-18T17:37:23.190Z,97454.09
2022-10-18T17:39:49.652Z,97453.75
2022-10-18T17:42:16.015Z,97451.41
2022-10-18T17:44:42.381Z,97456.63
2022-10-18T17:47:08.758Z,97456.53
2022-10-18T17:49:35.133Z,97457.53
2022-10-18T17:52:06.082Z,97458.78
2022-10-18T17:54:33.512Z,97459.97
2022-10-18T17:56:59.906Z,97458.09
2022-10-18T17:59:26.284Z,97461.13
2022-10-18T18:01:52.651Z,97468.81
2022-10-18T18:04:19.030Z,97462.81
2022-10-18T18:06:45.393Z,97468.16
2022-10-18T18:09:11.777Z,97463.78
2022-10-18T18:11:38.284Z,97468.25
2022-10-18T18:14:04.640Z,97468.44
2022-10-18T18:16:31.020Z,97471.44
2022-10-18T18:18:57.384Z,97475.78
2022-10-18T18:21:23.773Z,97471.22
2022-10-18T18:23:50.162Z,97471.66
2022-10-18T18:26:16.533Z,97477.69
2022-10-18T18:28:43.031Z,97477.00
2022-10-18T18:31:09.508Z,97476.91
2022-10-18T18:33:35.881Z,97467.75
2022-10-18T18:36:02.258Z,97477.09
2022-10-18T18:38:28.619Z,97475.66
2022-10-18T18:40:54.980Z,97473.56
2022-10-18T18:43:23.369Z,97474.94
2022-10-18T18:45:50.034Z,97475.13
2022-10-18T18:48:19.134Z,97473.31
2022-10-18T18:50:46.413Z,97483.22
2022-10-18T18:53:12.789Z,97484.44
2022-10-18T18:55:39.169Z,97476.19
2022-10-18T18:58:05.541Z,97472.28
2022-10-18T19:00:31.909Z,97479.06
2022-10-18T19:02:58.337Z,97478.16
2022-10-18T19:05:24.712Z,97476.28
2022-10-18T19:07:51.097Z,97479.63
2022-10-18T19:10:17.471Z,97474.19
2022-10-18T19:12:43.846Z,97476.44
2022-10-18T19:15:10.231Z,97471.16
2022-10-18T19:17:36.612Z,97474.75
2022-10-18T19:20:02.990Z,97477.41
2022-10-18T19:22:29.369Z,97474.88
2022-10-18T19:24:55.729Z,97467.47
2022-10-18T19:27:22.384Z,97474.19
2022-10-18T19:29:48.811Z,97470.06
2022-10-18T19:32:15.233Z,97461.69
2022-10-18T19:34:41.638Z,97465.69
2022-10-18T19:37:08.032Z,97464.13
2022-10-18T19:39:34.423Z,97458.31
2022-10-18T19:42:00.839Z,97461.44
2022-10-18T19:44:27.237Z,97456.09
2022-10-18T19:46:53.611Z,97461.19
2022-10-18T19:49:19.992Z,97466.03
2022-10-18T19:51:46.394Z,97467.34
2022-10-18T19:54:12.773Z,97459.03
2022-10-18T19:56:39.143Z,97463.72
2022-10-18T19:59:05.522Z,97469.97
2022-10-18T20:01:31.962Z,97471.84
2022-10-18T20:03:58.345Z,97468.41
2022-10-18T20:06:24.726Z,97462.75
2022-10-18T20:08:51.093Z,97468.56
2022-10-18T20:11:17.470Z,97462.50
2022-10-18T20:13:43.848Z,97464.84
2022-10-18T20:16:10.213Z,97456.28
2022-10-18T20:18:36.598Z,97457.28
2022-10-18T20:21:02.973Z,97457.28
2022-10-18T20:23:29.345Z,97454.97
2022-10-18T20:25:55.730Z,97464.19
2022-10-18T20:28:22.100Z,97461.84
2022-10-18T20:30:48.474Z,97455.50
2022-10-18T20:33:14.989Z,97456.16
2022-10-18T20:35:41.375Z,97448.91
2022-10-18T20:38:07.783Z,97448.47
2022-10-18T20:40:34.157Z,97452.38
2022-10-18T20:43:03.721Z,97453.50
2022-10-18T20:45:30.369Z,97457.63
2022-10-18T20:47:56.738Z,97454.16
2022-10-18T20:50:23.118Z,97452.59
2022-10-18T20:52:52.254Z,97454.25
2022-10-18T20:55:18.630Z,97450.94
2022-10-18T20:57:45.019Z,97458.53
2022-10-18T21:00:11.385Z,97460.16
2022-10-18T21:02:37.749Z,97464.66
2022-10-18T21:05:04.130Z,97460.41
2022-10-18T21:07:30.779Z,97467.00
2022-10-18T21:09:57.351Z,97452.31
2022-10-18T21:12:25.495Z,97458.88
2022-10-18T21:14:53.984Z,97453.97
2022-10-18T21:17:20.357Z,97461.53
2022-10-18T21:19:46.716Z,97450.75
2022-10-18T21:22:13.076Z,97453.50
2022-10-18T21:24:39.453Z,97446.06
2022-10-18T21:27:05.846Z,97442.66
2022-10-18T21:29:32.216Z,97442.72
2022-10-18T21:31:58.582Z,97439.19
2022-10-18T21:34:24.955Z,97442.28
2022-10-18T21:36:51.315Z,97444.19
2022-10-18T21:39:17.850Z,97437.53
2022-10-18T21:41:44.293Z,97441.41
2022-10-18T21:44:10.960Z,97439.44
2022-10-18T21:46:37.516Z,97439.84
2022-10-18T21:49:03.898Z,97437.44
2022-10-18T21:51:30.307Z,97440.63
2022-10-18T21:53:56.686Z,97437.09
2022-10-18T21:56:23.049Z,97437.69
2022-10-18T21:58:49.433Z,97437.44
2022-10-18T22:01:15.847Z,97434.69
2022-10-18T22:03:42.274Z,97429.09
2022-10-18T22:06:08.651Z,97422.84
2022-10-18T22:08:35.041Z,97421.63
2022-10-18T22:11:01.404Z,97422.75
2022-10-18T22:13:27.768Z,97410.16
2022-10-18T22:15:54.147Z,97409.84
2022-10-18T22:18:20.553Z,97408.59
2022-10-18T22:20:46.915Z,97411.84
2022-10-18T22:23:13.284Z,97406.25
2022-10-18T22:25:39.666Z,97404.38
2022-10-18T22:28:06.025Z,97406.97
2022-10-18T22:30:32.395Z,97402.97
2022-10-18T22:32:58.774Z,97397.88
2022-10-18T22:35:25.156Z,97399.97
2022-10-18T22:37:51.534Z,97396.50
2022-10-18T22:40:17.919Z,97392.09
2022-10-18T22:42:44.303Z,97388.63
2022-10-18T22:45:10.682Z,97386.41
2022-10-18T22:47:37.282Z,97387.53
2022-10-18T22:50:03.900Z,97388.50
2022-10-18T22:52:30.382Z,97391.16
2022-10-18T22:54:56.861Z,97392.47
2022-10-18T22:57:23.231Z,97393.94
2022-10-18T22:59:49.601Z,97391.25
2022-10-18T23:02:15.985Z,97390.47
2022-10-18T23:04:42.358Z,97385.50
2022-10-18T23:07:08.728Z,97376.34
2022-10-18T23:09:35.130Z,97383.03
2022-10-18T23:12:01.548Z,97371.94
2022-10-18T23:14:27.928Z,97374.16
2022-10-18T23:16:54.343Z,97371.22
2022-10-18T23:19:20.712Z,97365.63
2022-10-18T23:21:47.093Z,97368.31
2022-10-18T23:24:13.476Z,97370.97
2022-10-18T23:26:39.844Z,97369.91
2022-10-18T23:29:06.234Z,97368.56
2022-10-18T23:31:32.801Z,97369.13
2022-10-18T23:33:59.173Z,97366.13
2022-10-18T23:36:25.572Z,97371.72
2022-10-18T23:38:51.945Z,97364.69
2022-10-18T23:41:18.323Z,97364.25
2022-10-18T23:43:44.706Z,97361.31
2022-10-18T23:46:11.082Z,97354.34
2022-10-18T23:48:37.469Z,97361.81
2022-10-18T23:51:03.839Z,97352.25
2022-10-18T23:53:30.215Z,97358.16
2022-10-18T23:55:56.609Z,97373.16
2022-10-18T23:58:22.985Z,97367.69
